Time;durP1;ratioP1;P1;durP2;ratioP2;P2;SDS_P1;SDS_P2;PMS_P1;PMS_P2;Temp;Humidity;BMP_temperature;BMP_pressure;BME280_temperature;BME280_humidity;BME280_pressure;Samples;Min_cycle;Max_cycle;Signal;HPM_P1;HPM_P2
2023/05/23 00:01:31;;;;;;;32.58;18.80;;;;;;;16.30;100.00;98580.03;5036634;28;20030;-74
2023/05/23 00:03:57;;;;;;;38.10;19.83;;;;;;;16.35;100.00;98592.97;5015960;28;20402;-75
2023/05/23 00:06:23;;;;;;;40.90;21.33;;;;;;;16.16;100.00;98562.28;5041445;28;20032;-74
2023/05/23 00:08:49;;;;;;;37.38;20.45;;;;;;;16.25;100.00;98588.13;5043418;28;20163;-74
2023/05/23 00:11:14;;;;;;;36.67;20.70;;;;;;;16.11;100.00;98575.84;5025377;28;20112;-74
2023/05/23 00:13:41;;;;;;;38.08;20.20;;;;;;;16.03;100.00;98578.97;5027954;28;20564;-74
2023/05/23 00:16:08;;;;;;;41.10;23.10;;;;;;;16.05;100.00;98564.00;5044017;28;20025;-77
2023/05/23 00:18:34;;;;;;;37.97;21.52;;;;;;;16.08;100.00;98577.16;5043972;28;20025;-73
2023/05/23 00:21:00;;;;;;;40.20;22.30;;;;;;;16.07;100.00;98585.63;5044459;28;20021;-73
2023/05/23 00:23:28;;;;;;;42.83;22.45;;;;;;;16.12;100.00;98593.91;5041457;28;20110;-73
2023/05/23 00:25:57;;;;;;;41.80;23.13;;;;;;;16.06;100.00;98595.72;5036166;28;20021;-75
2023/05/23 00:28:22;;;;;;;44.38;23.33;;;;;;;15.92;100.00;98573.31;5040836;28;20025;-73
2023/05/23 00:30:47;;;;;;;27.42;18.10;;;;;;;15.90;100.00;98582.81;5044232;28;20075;-73
2023/05/23 00:33:14;;;;;;;40.45;21.70;;;;;;;15.94;100.00;98590.28;5039831;28;20714;-73
2023/05/23 00:35:40;;;;;;;35.92;21.05;;;;;;;15.80;100.00;98577.16;5054968;28;20048;-73
2023/05/23 00:38:06;;;;;;;41.70;23.00;;;;;;;15.95;100.00;98604.75;5032876;28;20036;-73
2023/05/23 00:40:32;;;;;;;45.40;25.25;;;;;;;15.92;100.00;98602.50;5026602;28;20057;-73
2023/05/23 00:42:58;;;;;;;49.85;25.48;;;;;;;15.92;100.00;98602.50;5042642;28;20013;-73
2023/05/23 00:45:23;;;;;;;52.17;26.13;;;;;;;15.81;100.00;98590.56;5033817;28;20070;-73
2023/05/23 00:47:50;;;;;;;52.72;27.35;;;;;;;15.93;100.00;98609.63;5026672;28;20491;-73
2023/05/23 00:50:15;;;;;;;51.78;26.40;;;;;;;15.79;100.00;98611.81;5043634;28;20037;-73
2023/05/23 00:52:43;;;;;;;55.53;26.73;;;;;;;15.80;100.00;98629.84;5052311;28;20028;-74
2023/05/23 00:55:09;;;;;;;52.78;27.10;;;;;;;15.78;100.00;98635.53;5051119;28;20108;-73
2023/05/23 00:57:39;;;;;;;51.00;27.33;;;;;;;15.74;100.00;98633.50;5027781;28;20427;-75
2023/05/23 01:00:10;;;;;;;55.30;28.63;;;;;;;15.68;100.00;98632.56;5047485;28;20513;-73
2023/05/23 01:02:42;;;;;;;70.25;30.35;;;;;;;15.80;100.00;98629.84;5038329;28;20079;-73
2023/05/23 01:05:08;;;;;;;59.20;30.13;;;;;;;15.79;100.00;98622.72;5030907;28;20075;-74
2023/05/23 01:07:34;;;;;;;59.90;29.42;;;;;;;15.78;100.00;98642.88;5043367;28;20029;-73
2023/05/23 01:10:00;;;;;;;63.53;29.92;;;;;;;15.78;100.00;98642.88;5023624;28;20036;-73
2023/05/23 01:12:45;;;;;;;65.95;31.75;;;;;;;15.77;100.00;98642.06;5051513;28;20028;-74
2023/05/23 01:15:19;;;;;;;69.50;30.67;;;;;;;15.75;100.00;98637.91;5019757;28;20020;-74
2023/05/23 01:17:58;;;;;;;77.30;32.63;;;;;;;15.78;100.00;98648.34;5041779;28;20026;-73
2023/05/23 01:20:30;;;;;;;80.72;34.33;;;;;;;15.74;100.00;98641.69;5018652;28;20025;-74
2023/05/23 01:23:01;;;;;;;70.75;31.02;;;;;;;15.73;100.00;98643.59;5053217;28;20040;-74
2023/05/23 01:25:32;;;;;;;49.25;26.10;;;;;;;15.68;100.00;98639.91;5052489;28;20086;-73
2023/05/23 01:28:04;;;;;;;56.03;26.08;;;;;;;15.42;100.00;98627.63;5036688;28;20372;-73
2023/05/23 01:30:34;;;;;;;44.67;24.23;;;;;;;15.44;100.00;98639.13;5018896;28;20483;-74
2023/05/23 01:33:00;;;;;;;52.42;28.02;;;;;;;15.34;100.00;98632.38;5040372;28;20520;-74
2023/05/23 01:35:26;;;;;;;54.63;26.33;;;;;;;15.33;100.00;98646.25;5041704;28;20042;-73
2023/05/23 01:37:53;;;;;;;49.58;25.45;;;;;;;15.42;100.00;98655.72;5039485;28;20471;-74
2023/05/23 01:40:18;;;;;;;59.33;28.15;;;;;;;15.36;100.00;98639.50;5051133;28;20025;-73
2023/05/23 01:42:44;;;;;;;63.42;29.48;;;;;;;15.36;100.00;98634.88;5018115;28;20036;-74
2023/05/23 01:45:10;;;;;;;66.22;30.63;;;;;;;15.30;100.00;98638.53;5031292;28;20060;-74
2023/05/23 01:47:37;;;;;;;42.50;23.73;;;;;;;15.17;100.00;98633.31;5022749;28;20064;-74
2023/05/23 01:50:03;;;;;;;37.95;22.30;;;;;;;15.13;100.00;98644.69;5038962;28;20029;-74
2023/05/23 01:52:28;;;;;;;40.88;22.05;;;;;;;15.05;100.00;98644.22;5030338;28;20021;-74
2023/05/23 01:54:55;;;;;;;40.42;21.77;;;;;;;14.90;100.00;98631.88;5029424;28;20029;-74
2023/05/23 01:57:21;;;;;;;43.95;22.63;;;;;;;14.85;100.00;98623.59;5020819;28;20083;-74
2023/05/23 01:59:47;;;;;;;42.30;22.52;;;;;;;14.86;100.00;98624.44;5027289;28;20025;-74
2023/05/23 02:02:12;;;;;;;52.80;24.42;;;;;;;14.78;100.00;98625.63;5041204;28;20078;-74
2023/05/23 02:04:37;;;;;;;47.63;25.77;;;;;;;14.85;100.00;98647.28;5020700;28;20025;-74
2023/05/23 02:07:02;;;;;;;58.40;26.58;;;;;;;14.83;100.00;98652.97;5040387;28;20028;-73
2023/05/23 02:09:28;;;;;;;67.63;28.42;;;;;;;14.82;100.00;98645.03;5031575;28;20471;-73
2023/05/23 02:11:53;;;;;;;60.80;28.67;;;;;;;14.83;100.00;98642.09;5029516;28;20040;-74
2023/05/23 02:14:19;;;;;;;61.92;27.48;;;;;;;14.82;100.00;98651.31;5050070;28;20025;-74
2023/05/23 02:16:45;;;;;;;52.75;27.42;;;;;;;14.89;100.00;98662.94;5033525;28;20107;-74
2023/05/23 02:19:10;;;;;;;48.30;25.85;;;;;;;14.81;100.00;98657.00;5041189;28;20104;-73
2023/05/23 02:21:36;;;;;;;53.70;24.60;;;;;;;14.78;100.00;98655.56;5050102;28;20043;-74
2023/05/23 02:24:02;;;;;;;44.10;22.80;;;;;;;14.67;100.00;98642.75;5047375;28;20366;-74
2023/05/23 02:26:27;;;;;;;45.90;21.90;;;;;;;14.62;100.00;98640.75;5040473;28;20104;-74
2023/05/23 02:28:53;;;;;;;38.35;22.75;;;;;;;14.62;100.00;98643.47;5016164;28;20037;-74
2023/05/23 02:31:18;;;;;;;43.53;22.58;;;;;;;14.61;100.00;98657.31;5030580;28;20057;-74
2023/05/23 02:33:43;;;;;;;44.30;22.83;;;;;;;14.44;100.00;98638.06;5032064;28;20070;-74
2023/05/23 02:36:08;;;;;;;48.33;23.17;;;;;;;14.52;100.00;98658.69;5034084;28;20108;-74
2023/05/23 02:38:34;;;;;;;53.58;25.02;;;;;;;14.67;100.00;98668.09;5043183;28;20021;-74
2023/05/23 02:40:59;;;;;;;46.47;24.33;;;;;;;14.81;100.00;98684.25;5047536;28;20055;-73
2023/05/23 02:43:25;;;;;;;46.42;23.27;;;;;;;14.81;100.00;98654.28;5017268;28;20033;-75
2023/05/23 02:45:50;;;;;;;45.58;23.63;;;;;;;14.94;100.00;98670.41;5028296;28;20033;-74
2023/05/23 02:48:16;;;;;;;42.30;22.83;;;;;;;15.05;100.00;98666.84;5037151;28;20499;-73
2023/05/23 02:50:41;;;;;;;38.03;20.80;;;;;;;15.08;100.00;98660.94;5050232;28;20044;-73
2023/05/23 02:53:06;;;;;;;38.30;21.08;;;;;;;15.14;100.00;98659.16;5044190;28;20059;-74
2023/05/23 02:55:32;;;;;;;39.33;22.42;;;;;;;15.26;100.00;98675.53;5034054;28;20098;-74
2023/05/23 02:58:00;;;;;;;39.47;22.33;;;;;;;15.13;100.00;98655.59;5052138;28;20029;-74
2023/05/23 03:00:26;;;;;;;46.28;23.83;;;;;;;15.20;100.00;98647.31;5026594;28;20025;-74
2023/05/23 03:02:51;;;;;;;45.60;23.38;;;;;;;15.12;100.00;98647.69;5029131;28;20028;-74
2023/05/23 03:05:17;;;;;;;43.95;23.77;;;;;;;15.24;100.00;98670.28;5017638;28;20110;-75
2023/05/23 03:07:42;;;;;;;57.55;27.15;;;;;;;15.31;100.00;98665.56;5029503;28;20030;-74
2023/05/23 03:10:08;;;;;;;50.90;26.20;;;;;;;15.42;100.00;98673.97;5027070;28;20425;-74
2023/05/23 03:12:34;;;;;;;46.25;25.02;;;;;;;15.39;100.00;98661.66;5020470;28;20037;-74
2023/05/23 03:14:59;;;;;;;45.03;24.15;;;;;;;15.45;100.00;98666.13;5046534;28;20025;-74
2023/05/23 03:17:24;;;;;;;48.58;23.58;;;;;;;15.40;100.00;98666.03;5043980;28;20360;-74
2023/05/23 03:19:50;;;;;;;49.08;22.05;;;;;;;15.35;100.00;98655.00;5031534;28;20525;-74
2023/05/23 03:22:15;;;;;;;45.38;22.30;;;;;;;15.30;100.00;98641.25;5041115;28;20147;-76
2023/05/23 03:24:41;;;;;;;37.83;22.60;;;;;;;15.46;100.00;98669.72;5050598;28;20032;-74
2023/05/23 03:27:07;;;;;;;52.72;22.85;;;;;;;15.43;100.00;98662.00;5041995;28;20025;-75
2023/05/23 03:29:32;;;;;;;43.03;22.98;;;;;;;15.26;100.00;98640.91;5032141;28;20023;-76
2023/05/23 03:31:57;;;;;;;42.05;23.25;;;;;;;15.36;100.00;98651.22;5028408;28;20078;-76
2023/05/23 03:34:25;;;;;;;46.08;24.27;;;;;;;15.45;100.00;98659.84;5025554;28;20025;-75
2023/05/23 03:36:50;;;;;;;48.45;25.42;;;;;;;15.39;100.00;98660.81;5048903;28;20025;-76
2023/05/23 03:39:15;;;;;;;52.88;26.65;;;;;;;15.41;100.00;98661.41;5025509;28;20025;-76
2023/05/23 03:41:41;;;;;;;47.17;25.30;;;;;;;15.41;100.00;98659.50;5029013;28;20051;-76
2023/05/23 03:44:06;;;;;;;58.20;28.98;;;;;;;15.41;100.00;98662.25;5052038;28;20451;-78
2023/05/23 03:46:32;;;;;;;57.58;28.75;;;;;;;15.43;100.00;98667.44;5028192;28;20120;-75
2023/05/23 03:48:57;;;;;;;60.05;29.30;;;;;;;15.57;100.00;98674.31;5032530;28;20503;-78
2023/05/23 03:51:23;;;;;;;57.97;27.90;;;;;;;15.67;100.00;98677.28;5034255;28;20025;-78
2023/05/23 03:53:48;;;;;;;57.58;27.08;;;;;;;15.76;100.00;98683.22;5033697;28;20047;-76
2023/05/23 03:56:13;;;;;;;55.67;28.13;;;;;;;15.77;100.00;98663.03;5016730;28;20097;-78
2023/05/23 03:58:39;;;;;;;58.15;28.70;;;;;;;15.99;100.00;98683.16;5047547;28;20024;-78
2023/05/23 04:01:04;;;;;;;77.68;36.28;;;;;;;16.05;100.00;98669.63;5053503;28;20055;-78
2023/05/23 04:03:31;;;;;;;73.13;35.78;;;;;;;16.20;100.00;98687.13;5031849;28;20091;-81
2023/05/23 04:05:59;;;;;;;78.53;35.92;;;;;;;16.19;100.00;98669.09;5031813;28;20032;-81
2023/05/23 04:08:25;;;;;;;69.70;34.17;;;;;;;16.36;100.00;98693.72;5036351;28;20072;-81
2023/05/23 04:10:50;;;;;;;63.20;33.70;;;;;;;16.30;100.00;98670.13;5036035;28;20394;-78
2023/05/23 04:13:15;;;;;;;72.55;33.28;;;;;;;16.30;100.00;98670.13;5050821;28;20028;-76
2023/05/23 04:15:41;;;;;;;84.35;37.28;;;;;;;16.43;100.00;98691.66;5024935;28;20045;-76
2023/05/23 04:18:08;;;;;;;75.75;36.10;;;;;;;16.49;100.00;98689.03;5028258;28;20025;-76
2023/05/23 04:20:33;;;;;;;80.43;40.22;;;;;;;16.43;100.00;98683.47;5034766;28;20393;-76
2023/05/23 04:22:58;;;;;;;74.20;38.50;;;;;;;16.48;100.00;98676.44;5024086;28;20025;-77
2023/05/23 04:25:25;;;;;;;80.45;39.38;;;;;;;16.57;100.00;98673.06;5027343;28;20060;-75
2023/05/23 04:27:50;;;;;;;53.10;29.17;;;;;;;16.64;100.00;98684.69;5036549;28;20032;-80
2023/05/23 04:30:17;;;;;;;48.38;26.25;;;;;;;16.58;100.00;98680.22;5055681;28;20039;-80
2023/05/23 04:32:43;;;;;;;52.72;27.23;;;;;;;16.63;100.00;98676.72;5022770;28;20021;-78
2023/05/23 04:35:09;;;;;;;50.10;27.02;;;;;;;16.64;100.00;98678.41;5023760;28;20022;-82
2023/05/23 04:37:36;;;;;;;57.67;27.83;;;;;;;16.66;100.00;98692.63;5033440;28;20020;-75
2023/05/23 04:40:02;;;;;;;73.53;36.65;;;;;;;16.60;100.00;98669.84;5026181;28;20021;-80
2023/05/23 04:42:28;;;;;;;71.00;35.88;;;;;;;16.72;100.00;98690.84;5054083;28;20111;-74
2023/05/23 04:44:56;;;;;;;65.03;31.88;;;;;;;16.75;100.00;98693.06;5036762;28;20106;-70
2023/05/23 04:47:23;;;;;;;67.70;31.65;;;;;;;16.73;100.00;98681.56;5044606;28;20037;-70
2023/05/23 04:49:48;;;;;;;67.75;33.28;;;;;;;16.82;100.00;98697.34;5043357;28;20582;-70
2023/05/23 04:52:14;;;;;;;70.40;33.90;;;;;;;16.94;100.00;98699.16;5041048;28;20104;-73
2023/05/23 04:54:43;;;;;;;63.85;34.40;;;;;;;17.03;100.00;98684.84;5052057;28;20032;-77
2023/05/23 04:57:08;;;;;;;;;;;;;;;17.22;100.00;98699.09;5028816;28;20028;-70
2023/05/23 04:59:34;;;;;;;69.35;35.30;;;;;;;17.25;100.00;98682.16;5054185;28;19909;-70
2023/05/23 05:01:59;;;;;;;61.53;33.00;;;;;;;17.46;100.00;98696.16;5047880;28;20033;-70
2023/05/23 05:04:24;;;;;;;60.17;30.80;;;;;;;17.48;100.00;98702.22;5051976;28;20028;-70
2023/05/23 05:06:51;;;;;;;63.00;31.98;;;;;;;17.60;100.00;98694.72;5040591;28;20104;-69
2023/05/23 05:09:16;;;;;;;57.13;32.53;;;;;;;17.59;100.00;98704.00;5052544;28;20403;-70
2023/05/23 05:11:42;;;;;;;64.22;32.90;;;;;;;17.53;100.00;98696.81;5050624;28;20049;-70
2023/05/23 05:14:07;;;;;;;68.20;36.67;;;;;;;17.33;100.00;98686.41;5046139;28;20103;-72
2023/05/23 05:16:32;;;;;;;67.55;36.03;;;;;;;17.42;100.00;98692.25;5050159;28;20043;-74
2023/05/23 05:18:58;;;;;;;60.58;35.15;;;;;;;17.52;100.00;98684.22;5028128;28;20021;-74
2023/05/23 05:21:23;;;;;;;68.85;36.15;;;;;;;17.62;100.00;98694.47;5053266;28;20116;-75
2023/05/23 05:23:48;;;;;;;65.55;34.72;;;;;;;17.84;100.00;98684.44;5048821;28;20033;-74
2023/05/23 05:26:13;;;;;;;55.15;29.30;;;;;;;18.09;100.00;98688.56;5041663;28;20025;-73
2023/05/23 05:28:40;;;;;;;62.53;33.53;;;;;;;18.23;100.00;98691.72;5050691;28;20025;-72
2023/05/23 05:31:05;;;;;;;61.40;33.78;;;;;;;18.17;100.00;98699.06;5027312;28;20055;-72
2023/05/23 05:33:34;;;;;;;58.22;32.90;;;;;;;18.39;100.00;98682.59;5048480;28;20049;-76
2023/05/23 05:36:01;;;;;;;55.35;32.90;;;;;;;18.25;100.00;98676.69;5037399;28;20108;-74
2023/05/23 05:38:27;;;;;;;56.78;30.98;;;;;;;18.85;100.00;98695.97;5022533;28;20033;-74
2023/05/23 05:40:52;;;;;;;57.78;29.50;;;;;;;19.01;100.00;98681.31;5034787;28;20029;-74
2023/05/23 05:43:19;;;;;;;51.47;28.70;;;;;;;19.22;100.00;98682.31;5029680;28;20025;-70
2023/05/23 05:45:44;;;;;;;48.42;28.88;;;;;;;19.32;100.00;98668.66;5032027;28;20390;-71
2023/05/23 05:48:10;;;;;;;51.35;29.85;;;;;;;19.32;100.00;98684.31;5036024;28;20032;-74
2023/05/23 05:50:36;;;;;;;48.58;28.23;;;;;;;19.35;100.00;98673.63;5034688;28;20033;-72
2023/05/23 05:53:01;;;;;;;45.63;28.98;;;;;;;19.37;100.00;98668.72;5051200;28;20025;-73
2023/05/23 05:55:26;;;;;;;43.25;25.48;;;;;;;19.70;100.00;98663.97;5046217;28;20225;-71
2023/05/23 05:57:51;;;;;;;48.13;28.70;;;;;;;19.89;100.00;98673.44;5040081;28;20021;-72
2023/05/23 06:00:18;;;;;;;42.55;25.98;;;;;;;20.47;100.00;98665.13;5031858;28;20617;-72
2023/05/23 06:02:50;;;;;;;44.40;26.33;;;;;;;21.09;100.00;98676.19;5048394;28;20045;-72
2023/05/23 06:05:15;;;;;;;43.15;25.70;;;;;;;21.03;100.00;98656.13;5041576;28;20029;-72
2023/05/23 06:07:44;;;;;;;39.70;24.40;;;;;;;21.10;100.00;98667.69;5050623;28;20025;-72
2023/05/23 06:10:12;;;;;;;38.67;24.63;;;;;;;21.11;100.00;98672.06;5035992;28;20094;-72
2023/05/23 06:12:38;;;;;;;38.25;25.08;;;;;;;20.88;100.00;98662.47;5053305;28;20090;-71
2023/05/23 06:15:05;;;;;;;36.25;23.25;;;;;;;20.76;100.00;98683.88;5028232;28;20013;-72
2023/05/23 06:17:30;;;;;;;37.28;22.55;;;;;;;20.57;100.00;98672.59;5031042;28;20536;-72
2023/05/23 06:19:55;;;;;;;37.70;25.38;;;;;;;20.18;100.00;98684.00;5045239;28;20033;-72
2023/05/23 06:22:22;;;;;;;43.17;26.67;;;;;;;19.70;100.00;98688.69;5047459;28;20029;-78
2023/05/23 06:24:47;;;;;;;39.03;25.85;;;;;;;19.42;100.00;98696.19;5033773;28;20025;-77
2023/05/23 06:27:12;;;;;;;38.40;25.00;;;;;;;19.27;100.00;98688.66;5052238;28;20082;-78
2023/05/23 06:29:38;;;;;;;40.97;26.35;;;;;;;19.06;100.00;98686.84;5038276;28;20029;-76
2023/05/23 06:32:04;;;;;;;36.33;24.42;;;;;;;19.33;100.00;98691.44;5023769;28;20540;-69
2023/05/23 06:34:29;;;;;;;40.63;26.08;;;;;;;19.47;100.00;98709.94;5043560;28;20546;-72
2023/05/23 06:36:55;;;;;;;39.30;24.95;;;;;;;19.46;100.00;98701.94;5049327;28;20104;-75
2023/05/23 06:39:20;;;;;;;33.40;23.48;;;;;;;19.80;100.00;98716.19;5050097;28;20103;-70
2023/05/23 06:41:46;;;;;;;37.95;23.08;;;;;;;19.89;100.00;98703.63;5033322;28;20021;-69
2023/05/23 06:44:11;;;;;;;37.00;22.80;;;;;;;20.18;100.00;98707.88;5017367;28;20025;-70
2023/05/23 06:46:36;;;;;;;40.63;22.65;;;;;;;20.45;100.00;98714.03;5043781;28;20025;-70
2023/05/23 06:49:02;;;;;;;37.63;23.55;;;;;;;20.45;100.00;98710.44;5033482;28;20017;-70
2023/05/23 06:51:28;;;;;;;38.08;24.25;;;;;;;20.15;100.00;98698.25;5033504;28;20136;-70
2023/05/23 06:53:55;;;;;;;35.85;23.58;;;;;;;20.20;100.00;98727.66;5047018;28;20440;-70
2023/05/23 06:56:23;;;;;;;37.92;25.08;;;;;;;20.19;100.00;98717.78;5027437;28;20059;-73
2023/05/23 06:58:49;;;;;;;37.33;23.37;;;;;;;20.38;100.00;98721.69;5043662;28;20013;-75
2023/05/23 07:01:14;;;;;;;39.47;24.35;;;;;;;20.57;100.00;98720.13;5027333;28;20105;-75
2023/05/23 07:03:42;;;;;;;32.15;22.83;;;;;;;20.51;100.00;98723.94;5036831;28;20024;-76
2023/05/23 07:06:07;;;;;;;36.42;23.70;;;;;;;20.27;100.00;98715.31;5028883;28;20025;-79
2023/05/23 07:08:32;;;;;;;31.60;22.52;;;;;;;20.43;100.00;98738.19;5037791;28;20048;-76
2023/05/23 07:10:58;;;;;;;33.33;21.92;;;;;;;20.49;100.00;98730.81;5037205;28;20525;-81
2023/05/23 07:13:23;;;;;;;30.88;21.67;;;;;;;20.54;100.00;98720.69;5034533;28;20032;-76
2023/05/23 07:15:48;;;;;;;33.60;22.77;;;;;;;20.66;100.00;98731.44;5045222;28;20103;-75
2023/05/23 07:18:14;;;;;;;33.55;21.58;;;;;;;20.55;100.00;98738.00;5026660;28;20467;-76
2023/05/23 07:20:39;;;;;;;29.10;19.42;;;;;;;20.56;100.00;98728.66;5049602;28;20166;-76
2023/05/23 07:23:04;;;;;;;32.30;19.90;;;;;;;20.93;100.00;98736.72;5035722;28;20108;-77
2023/05/23 07:25:32;;;;;;;29.30;19.08;;;;;;;20.87;100.00;98723.22;5047833;28;21922;-75
2023/05/23 07:27:57;;;;;;;26.48;18.02;;;;;;;20.95;100.00;98717.19;5048472;28;20028;-76
2023/05/23 07:30:23;;;;;;;28.25;18.67;;;;;;;21.41;100.00;98745.56;5020655;28;21058;-75
2023/05/23 07:32:48;;;;;;;23.25;16.17;;;;;;;21.57;100.00;98727.13;5017313;28;20394;-78
2023/05/23 07:35:14;;;;;;;24.48;16.23;;;;;;;21.93;100.00;98702.28;5035611;28;20421;-76
2023/05/23 07:37:40;;;;;;;23.05;15.73;;;;;;;22.51;100.00;98740.38;5024198;28;20449;-75
2023/05/23 07:40:09;;;;;;;20.95;14.80;;;;;;;22.99;100.00;98695.69;5050415;28;20020;-75
2023/05/23 07:42:34;;;;;;;21.85;14.25;;;;;;;24.29;100.00;98731.75;5025952;28;20059;-72
2023/05/23 07:45:00;;;;;;;20.52;14.25;;;;;;;24.24;100.00;98734.56;5047700;28;20108;-72
2023/05/23 07:47:26;;;;;;;18.00;12.45;;;;;;;23.89;100.00;98713.69;5045875;28;20040;-72
2023/05/23 07:49:52;;;;;;;18.40;12.27;;;;;;;23.76;100.00;98727.09;5021182;28;20083;-75
2023/05/23 07:52:17;;;;;;;21.63;13.18;;;;;;;23.65;100.00;98725.50;5052246;28;20597;-75
2023/05/23 07:54:42;;;;;;;21.98;12.18;;;;;;;23.13;100.00;98743.59;5042508;28;20021;-76
2023/05/23 07:57:09;;;;;;;18.70;12.68;;;;;;;22.74;100.00;98750.72;5032701;28;20031;-76
2023/05/23 07:59:35;;;;;;;17.08;11.52;;;;;;;22.59;100.00;98744.47;5023422;28;20021;-75
2023/05/23 08:02:01;;;;;;;18.83;12.63;;;;;;;22.54;100.00;98743.38;5027274;28;20075;-71
2023/05/23 08:04:27;;;;;;;15.57;12.20;;;;;;;22.09;100.00;98756.22;5028561;28;20060;-74
2023/05/23 08:06:54;;;;;;;17.42;11.93;;;;;;;22.27;100.00;98765.84;5043974;28;20029;-74
2023/05/23 08:09:19;;;;;;;16.27;12.10;;;;;;;22.18;100.00;98744.59;5029401;28;20049;-72
2023/05/23 08:11:45;;;;;;;18.80;12.40;;;;;;;22.51;100.00;98737.63;5047345;28;20450;-73
2023/05/23 08:14:10;;;;;;;15.60;11.00;;;;;;;22.99;100.00;98759.97;5033376;28;20146;-72
2023/05/23 08:16:36;;;;;;;18.67;11.60;;;;;;;22.57;100.00;98742.00;5042987;28;20041;-74
2023/05/23 08:19:01;;;;;;;16.23;11.50;;;;;;;22.17;100.00;98760.31;5038663;28;20146;-74
2023/05/23 08:21:27;;;;;;;17.38;10.57;;;;;;;21.51;100.00;98764.03;5024677;28;20485;-74
2023/05/23 08:23:52;;;;;;;14.43;10.75;;;;;;;20.97;100.00;98748.81;5051256;28;20025;-74
2023/05/23 08:26:17;;;;;;;15.13;10.82;;;;;;;20.89;100.00;98759.53;5023749;28;20029;-74
2023/05/23 08:28:43;;;;;;;16.98;11.18;;;;;;;20.84;100.00;98774.09;5039467;28;20430;-74
2023/05/23 08:31:08;;;;;;;14.07;10.13;;;;;;;20.75;100.00;98775.69;5040206;28;20119;-73
2023/05/23 08:33:33;;;;;;;14.95;9.85;;;;;;;20.82;100.00;98767.22;5033272;28;20025;-74
2023/05/23 08:35:58;;;;;;;13.82;10.32;;;;;;;20.61;100.00;98753.41;5049019;28;20049;-73
2023/05/23 08:38:25;;;;;;;13.68;9.63;;;;;;;20.98;100.00;98777.13;5046322;28;20021;-80
2023/05/23 08:40:51;;;;;;;15.05;9.90;;;;;;;21.10;100.00;98780.47;5032698;28;20061;-75
2023/05/23 08:43:18;;;;;;;15.57;9.65;;;;;;;20.93;100.00;98768.88;5042064;28;20062;-73
2023/05/23 08:45:44;;;;;;;12.52;9.32;;;;;;;20.98;100.00;98788.97;5026350;28;20021;-74
2023/05/23 08:48:12;;;;;;;16.33;10.40;;;;;;;21.03;100.00;98785.41;5025155;28;20128;-72
2023/05/23 08:50:39;;;;;;;13.30;9.93;;;;;;;20.93;100.00;98786.22;5048423;28;20048;-73
2023/05/23 08:53:08;;;;;;;15.00;9.60;;;;;;;21.08;100.00;98799.16;5018589;28;20124;-73
2023/05/23 08:55:36;;;;;;;10.82;8.88;;;;;;;21.39;100.00;98796.50;5037533;28;20061;-73
2023/05/23 08:58:02;;;;;;;14.55;9.15;;;;;;;22.16;100.00;98793.66;5018765;28;20025;-71
2023/05/23 09:00:28;;;;;;;16.55;8.75;;;;;;;24.26;100.00;98799.50;5043558;28;20020;-72
2023/05/23 09:02:54;;;;;;;11.57;8.43;;;;;;;27.05;95.33;98788.00;5032959;28;20029;-72
2023/05/23 09:05:20;;;;;;;11.98;8.80;;;;;;;27.95;78.14;98792.81;5031236;28;20021;-72
2023/05/23 09:07:46;;;;;;;10.35;7.80;;;;;;;27.81;75.99;98789.31;5035956;28;20017;-74
2023/05/23 09:10:13;;;;;;;10.23;8.40;;;;;;;26.19;82.61;98780.31;5047633;28;20025;-77
2023/05/23 09:12:39;;;;;;;11.43;8.63;;;;;;;25.31;95.15;98809.84;5037045;28;20122;-77
2023/05/23 09:15:09;;;;;;;12.48;8.95;;;;;;;23.86;100.00;98745.47;5034877;28;20475;-76
2023/05/23 09:17:35;;;;;;;15.73;9.07;;;;;;;23.61;100.00;98805.34;5037525;28;20116;-78
2023/05/23 09:20:01;;;;;;;12.40;9.15;;;;;;;22.89;100.00;98804.16;5035171;28;20108;-74
2023/05/23 09:22:27;;;;;;;11.15;8.90;;;;;;;22.86;100.00;98824.84;5054179;28;20033;-74
2023/05/23 09:24:57;;;;;;;12.98;8.90;;;;;;;22.35;100.00;98811.28;5044750;28;20025;-73
2023/05/23 09:27:22;;;;;;;13.85;9.48;;;;;;;22.42;100.00;98831.09;5025490;28;20029;-74
2023/05/23 09:29:48;;;;;;;15.55;9.95;;;;;;;22.03;100.00;98823.47;5049291;28;20021;-74
2023/05/23 09:32:18;;;;;;;12.82;9.48;;;;;;;21.87;100.00;98821.81;5051127;28;20017;-74
2023/05/23 09:34:56;;;;;;;15.35;8.95;;;;;;;22.05;100.00;98825.91;5050945;28;20021;-73
2023/05/23 09:37:36;;;;;;;15.20;9.95;;;;;;;21.83;100.00;98823.47;5048296;28;20044;-74
2023/05/23 09:40:08;;;;;;;16.38;9.82;;;;;;;21.80;100.00;98835.88;5031434;28;20021;-74
2023/05/23 09:42:34;;;;;;;13.63;10.00;;;;;;;21.73;100.00;98834.50;5025483;28;20025;-74
2023/05/23 09:45:00;;;;;;;14.65;9.95;;;;;;;21.78;100.00;98838.06;5029291;28;20024;-74
2023/05/23 09:47:28;;;;;;;12.63;9.63;;;;;;;21.83;100.00;98823.47;5046024;28;20060;-74
2023/05/23 09:49:54;;;;;;;11.77;9.50;;;;;;;22.21;100.00;98840.53;5023215;28;20439;-74
2023/05/23 09:52:19;;;;;;;11.93;9.05;;;;;;;22.18;100.00;98830.84;5016003;28;20073;-74
2023/05/23 09:54:46;;;;;;;13.25;8.98;;;;;;;22.39;100.00;98834.41;5039203;28;20095;-74
2023/05/23 09:57:13;;;;;;;13.00;9.80;;;;;;;22.77;100.00;98834.84;5040896;28;20020;-74
2023/05/23 09:59:41;;;;;;;11.82;9.63;;;;;;;22.87;100.00;98826.53;5030648;28;20481;-74
2023/05/23 10:02:11;;;;;;;10.45;8.07;;;;;;;23.40;100.00;98821.25;5045184;28;20029;-74
2023/05/23 10:04:39;;;;;;;12.43;9.68;;;;;;;23.49;100.00;98818.69;5027350;28;20029;-74
2023/05/23 10:07:13;;;;;;;11.45;8.93;;;;;;;23.77;100.00;98839.22;5026303;28;20024;-74
2023/05/23 10:09:41;;;;;;;12.52;8.93;;;;;;;23.80;100.00;98830.34;5043691;28;20048;-74
2023/05/23 10:12:31;;;;;;;14.55;8.32;;;;;;;23.91;100.00;98835.78;5051727;28;20074;-74
2023/05/23 10:15:07;;;;;;;12.43;8.52;;;;;;;23.91;100.00;98844.09;5051639;28;20029;-75
2023/05/23 10:17:41;;;;;;;10.70;7.80;;;;;;;23.98;100.00;98825.22;5026816;28;20395;-74
2023/05/23 10:20:15;;;;;;;10.02;8.00;;;;;;;23.92;100.00;98848.47;5050926;28;20532;-74
2023/05/23 10:22:41;;;;;;;11.75;8.57;;;;;;;23.71;100.00;98845.88;5023689;28;20030;-73
2023/05/23 10:25:09;;;;;;;10.70;7.82;;;;;;;23.53;100.00;98852.94;5040397;28;20031;-74
2023/05/23 10:27:36;;;;;;;9.40;7.40;;;;;;;23.37;100.00;98851.34;5030364;28;20495;-76
2023/05/23 10:30:01;;;;;;;9.27;7.10;;;;;;;23.20;100.00;98849.00;5032951;28;20032;-74
2023/05/23 10:32:28;;;;;;;9.15;7.03;;;;;;;23.21;100.00;98841.53;5023958;28;20492;-74
2023/05/23 10:35:08;;;;;;;13.50;8.02;;;;;;;23.32;100.00;98834.84;5051840;28;20024;-74
2023/05/23 10:37:55;;;;;;;9.32;7.18;;;;;;;23.99;98.05;98852.56;5049349;28;20048;-75
2023/05/23 10:40:39;;;;;;;10.77;7.55;;;;;;;24.46;87.62;98853.78;5032825;28;20498;-72
2023/05/23 10:43:12;;;;;;;8.82;6.97;;;;;;;25.01;84.95;98847.84;5028645;28;20028;-73
2023/05/23 10:45:41;;;;;;;9.73;6.88;;;;;;;24.65;82.16;98853.88;5033639;28;20033;-74
2023/05/23 10:48:33;;;;;;;8.45;6.75;;;;;;;24.23;83.56;98860.94;5045896;28;20471;-74
2023/05/23 10:51:03;;;;;;;11.52;7.68;;;;;;;24.02;91.29;98853.91;5042463;28;20074;-74
2023/05/23 10:53:30;;;;;;;8.10;6.75;;;;;;;23.87;95.06;98856.81;5031755;28;20024;-74
2023/05/23 10:55:56;;;;;;;9.65;7.55;;;;;;;23.47;98.36;98843.00;5040949;28;20067;-74
2023/05/23 10:58:22;;;;;;;8.57;6.72;;;;;;;23.60;99.36;98849.81;5027305;28;20056;-74
2023/05/23 11:00:55;;;;;;;10.10;6.93;;;;;;;23.41;95.63;98844.16;5047023;28;20091;-74
2023/05/23 11:03:48;;;;;;;10.70;7.28;;;;;;;23.50;95.89;98847.13;5032438;28;20052;-74
2023/05/23 11:06:33;;;;;;;9.70;6.85;;;;;;;23.22;100.00;98851.47;5033254;28;20024;-74
2023/05/23 11:09:02;;;;;;;10.55;6.60;;;;;;;23.67;100.00;98847.56;5033019;28;20025;-74
2023/05/23 11:11:52;;;;;;;9.27;7.35;;;;;;;23.77;99.42;98849.47;5043719;28;20078;-74